Time;durP1;ratioP1;P1;durP2;ratioP2;P2;SDS_P1;SDS_P2;PMS_P1;PMS_P2;Temp;Humidity;BMP_temperature;BMP_pressure;BME280_temperature;BME280_humidity;BME280_pressure;Samples;Min_cycle;Max_cycle;Signal;HPM_P1;HPM_P2
2021/06/29 00:00:32;;;;;;;9.70;6.70;;;;;;;20.36;64.52;94030.22;6112028;23;20070;-80
2021/06/29 00:03:01;;;;;;;7.82;7.00;;;;;;;20.49;63.98;94028.22;6086125;23;20093;-80
2021/06/29 00:05:28;;;;;;;7.65;6.72;;;;;;;20.48;64.64;94032.03;6112606;23;20049;-80
2021/06/29 00:07:54;;;;;;;9.18;6.90;;;;;;;20.47;64.01;94030.50;6111364;23;20021;-81
2021/06/29 00:10:19;;;;;;;7.07;6.32;;;;;;;20.48;63.91;94029.34;6120004;23;20017;-80
2021/06/29 00:12:45;;;;;;;6.75;6.05;;;;;;;20.42;64.73;94034.22;6114273;23;20016;-80
2021/06/29 00:15:10;;;;;;;11.52;6.90;;;;;;;20.47;64.95;94030.50;6113971;23;20018;-81
2021/06/29 00:17:36;;;;;;;9.25;7.35;;;;;;;20.41;64.92;94021.13;6115731;23;20328;-80
2021/06/29 00:20:03;;;;;;;10.38;7.28;;;;;;;20.45;64.94;94017.41;6084798;23;20120;-80
2021/06/29 00:22:28;;;;;;;11.65;8.07;;;;;;;20.40;64.95;94024.94;6111980;23;20005;-80
2021/06/29 00:24:54;;;;;;;10.07;6.90;;;;;;;20.31;65.80;94019.72;6123819;23;20484;-80
2021/06/29 00:27:19;;;;;;;9.77;7.25;;;;;;;20.29;65.71;94020.03;6110719;23;20098;-80
2021/06/29 00:29:45;;;;;;;8.88;6.72;;;;;;;20.21;66.54;94029.03;6086467;23;20442;-80
2021/06/29 00:32:10;;;;;;;7.80;6.72;;;;;;;20.13;66.62;94027.28;6117426;23;20006;-80
2021/06/29 00:34:35;;;;;;;10.43;7.78;;;;;;;20.20;66.68;94030.16;6084893;23;20484;-80
2021/06/29 00:37:01;;;;;;;8.68;7.30;;;;;;;20.10;67.49;94027.16;6123407;23;20020;-81
2021/06/29 00:39:26;;;;;;;8.65;6.95;;;;;;;20.18;67.56;94027.00;6109479;23;20014;-80
2021/06/29 00:41:52;;;;;;;10.00;7.93;;;;;;;20.08;67.56;94032.09;6109615;23;20615;-80
2021/06/29 00:44:22;;;;;;;8.30;7.50;;;;;;;20.01;67.71;94031.91;6115668;23;20436;-80
2021/06/29 00:46:48;;;;;;;9.13;7.00;;;;;;;20.10;67.16;94024.47;6117439;23;20009;-80
2021/06/29 00:49:15;;;;;;;7.88;6.40;;;;;;;19.99;66.20;94010.03;6111786;23;20033;-81
2021/06/29 00:51:40;;;;;;;13.68;6.57;;;;;;;19.99;66.98;94032.22;6113700;23;20425;-81
2021/06/29 00:54:06;;;;;;;8.57;6.97;;;;;;;19.86;67.20;94028.81;6109629;23;20026;-81
2021/06/29 00:56:32;;;;;;;8.13;6.70;;;;;;;19.93;66.63;94022.88;6115247;23;20112;-81
2021/06/29 00:58:58;;;;;;;9.18;7.40;;;;;;;19.73;67.46;94011.22;6118007;23;20014;-81
2021/06/29 01:01:23;;;;;;;8.32;6.97;;;;;;;19.76;68.02;94025.84;6083273;23;20009;-80
2021/06/29 01:03:49;;;;;;;12.02;7.07;;;;;;;19.78;67.99;94021.72;6122826;23;20113;-81
2021/06/29 01:06:15;;;;;;;8.40;7.60;;;;;;;19.82;67.96;94017.22;6112245;23;20022;-80
2021/06/29 01:08:41;;;;;;;10.23;8.73;;;;;;;19.76;67.78;94012.44;6084902;23;20030;-80
2021/06/29 01:11:07;;;;;;;9.68;7.00;;;;;;;19.77;67.69;94020.16;6109021;23;20018;-81
2021/06/29 01:13:37;;;;;;;10.15;7.38;;;;;;;19.93;66.24;94022.88;6117206;23;20689;-80
2021/06/29 01:16:03;;;;;;;8.32;6.57;;;;;;;19.95;66.54;94031.34;6122716;23;20006;-81
2021/06/29 01:18:29;;;;;;;9.18;7.55;;;;;;;19.74;67.83;94030.78;6108026;23;20024;-81
2021/06/29 01:20:55;;;;;;;8.00;7.18;;;;;;;19.72;67.91;94028.44;6107750;23;20010;-81
2021/06/29 01:23:23;;;;;;;8.50;7.30;;;;;;;19.79;67.84;94030.53;6109789;23;20453;-80
2021/06/29 01:31:15;;;;;;;8.73;7.82;;;;;;;19.56;68.78;94018.75;6118880;23;20009;-80
2021/06/29 01:33:42;;;;;;;10.88;7.38;;;;;;;19.55;68.61;94017.22;6112088;23;20002;-80
2021/06/29 01:36:08;;;;;;;10.18;7.93;;;;;;;19.45;69.49;94019.22;6112754;23;20022;-80
2021/06/29 01:38:34;;;;;;;11.95;8.52;;;;;;;19.49;69.40;94015.88;6109728;23;20018;-81
2021/06/29 01:40:59;;;;;;;8.18;7.30;;;;;;;19.51;68.47;94008.25;6108834;23;20410;-80
2021/06/29 01:43:28;;;;;;;11.65;7.40;;;;;;;19.40;68.77;94015.97;6116503;23;20006;-80
2021/06/29 01:45:56;;;;;;;10.70;7.88;;;;;;;19.54;68.33;94015.63;6113004;23;20045;-80
2021/06/29 01:48:23;;;;;;;10.80;7.32;;;;;;;19.36;69.31;94015.84;6110153;23;20148;-81
2021/06/29 01:50:49;;;;;;;9.00;7.90;;;;;;;19.40;69.50;94016.72;6114504;23;20018;-81
2021/06/29 01:53:15;;;;;;;12.23;8.05;;;;;;;19.32;69.83;94014.19;6109387;23;20036;-80
2021/06/29 01:55:41;;;;;;;9.73;7.90;;;;;;;19.19;70.81;94016.09;6118016;23;20433;-80
2021/06/29 01:58:06;;;;;;;8.93;7.57;;;;;;;19.28;69.81;94016.75;6111676;23;20772;-80
2021/06/29 02:00:32;;;;;;;7.97;7.18;;;;;;;19.38;69.21;94018.97;6112103;23;20080;-81
2021/06/29 02:02:58;;;;;;;9.55;7.80;;;;;;;19.37;68.76;94012.06;6107395;23;20014;-81
2021/06/29 02:05:24;;;;;;;10.18;7.57;;;;;;;19.36;68.15;94010.50;6111991;23;20018;-80
2021/06/29 02:07:49;;;;;;;10.57;8.85;;;;;;;19.46;67.98;94017.31;6117378;23;20029;-80
2021/06/29 02:10:15;;;;;;;8.63;7.78;;;;;;;19.35;68.29;94022.31;6088301;23;20018;-81
2021/06/29 02:12:44;;;;;;;10.48;7.03;;;;;;;19.29;68.68;94010.28;6085932;23;20017;-80
2021/06/29 02:15:10;;;;;;;7.57;6.80;;;;;;;19.36;67.87;94023.09;6082925;23;20356;-81
2021/06/29 02:17:36;;;;;;;7.93;7.13;;;;;;;19.31;67.29;94013.41;6114483;23;20412;-80
2021/06/29 02:20:04;;;;;;;9.23;6.40;;;;;;;19.31;66.98;94018.75;6109163;23;20105;-80
2021/06/29 02:22:29;;;;;;;6.78;6.18;;;;;;;19.19;67.19;94024.16;6120113;23;20088;-80
2021/06/29 02:24:54;;;;;;;9.20;6.35;;;;;;;19.18;67.03;94019.91;6115259;23;20400;-80
2021/06/29 02:27:20;;;;;;;9.77;7.30;;;;;;;19.16;67.00;94011.41;6113115;23;20460;-80
2021/06/29 02:29:45;;;;;;;7.80;7.00;;;;;;;19.02;67.87;94014.44;6112262;23;20036;-80
2021/06/29 02:32:11;;;;;;;8.82;7.18;;;;;;;19.01;67.50;93998.69;6108229;23;20353;-81
2021/06/29 02:34:36;;;;;;;11.70;6.63;;;;;;;18.86;68.67;94018.13;6120258;23;20018;-80
2021/06/29 02:37:02;;;;;;;8.55;6.72;;;;;;;18.92;67.81;94014.09;6115351;23;20333;-80
2021/06/29 02:39:28;;;;;;;7.68;6.80;;;;;;;18.86;68.74;94018.13;6110286;23;20017;-80
2021/06/29 02:41:53;;;;;;;10.52;8.50;;;;;;;18.87;68.10;94023.13;6085338;23;20022;-80
2021/06/29 02:44:21;;;;;;;8.23;7.07;;;;;;;18.99;67.08;94019.69;6112542;23;20065;-80
2021/06/29 02:46:46;;;;;;;8.52;7.57;;;;;;;18.95;67.10;94026.84;6084113;23;20036;-80
2021/06/29 02:49:12;;;;;;;10.05;7.28;;;;;;;18.89;67.71;94018.25;6087218;23;20437;-80
2021/06/29 02:51:37;;;;;;;8.02;7.22;;;;;;;18.76;69.20;94019.38;6123849;23;20002;-80
2021/06/29 02:54:03;;;;;;;10.18;7.70;;;;;;;18.84;68.97;94037.22;6086432;23;20520;-80
2021/06/29 02:56:37;;;;;;;9.63;8.20;;;;;;;18.77;68.30;94010.19;6109838;23;20248;-80
2021/06/29 02:59:03;;;;;;;9.65;7.82;;;;;;;18.83;68.86;94024.13;6086361;23;20405;-80
2021/06/29 03:01:28;;;;;;;8.63;7.75;;;;;;;18.91;68.88;94026.69;6120547;23;20013;-80
2021/06/29 03:03:54;;;;;;;10.02;7.88;;;;;;;18.90;69.02;94035.09;6112671;23;20006;-80
2021/06/29 03:06:19;;;;;;;9.85;8.32;;;;;;;18.94;68.82;94031.41;6114023;23;20014;-80
2021/06/29 03:08:44;;;;;;;10.10;8.45;;;;;;;19.19;68.47;94032.19;6114828;23;20026;-80
2021/06/29 03:11:10;;;;;;;8.70;7.80;;;;;;;19.43;67.51;94028.69;6118329;23;20018;-81
2021/06/29 03:13:35;;;;;;;11.30;7.00;;;;;;;19.66;67.05;94024.41;6111985;23;20041;-81
2021/06/29 03:16:01;;;;;;;9.10;8.20;;;;;;;19.93;66.17;94027.47;6124492;23;20001;-80
2021/06/29 03:18:27;;;;;;;8.63;7.80;;;;;;;19.96;66.06;94011.47;6085751;23;20063;-81
2021/06/29 03:20:52;;;;;;;9.38;7.53;;;;;;;20.40;64.89;94025.72;6115574;23;20023;-81
2021/06/29 03:23:17;;;;;;;9.57;7.13;;;;;;;20.71;63.38;94015.00;6109857;23;20194;-81
2021/06/29 03:25:43;;;;;;;11.23;6.95;;;;;;;21.17;61.84;94021.50;6112192;23;20057;-81
2021/06/29 03:28:09;;;;;;;11.00;6.72;;;;;;;21.48;60.85;94027.94;6124198;23;20003;-81
2021/06/29 03:30:34;;;;;;;8.20;7.25;;;;;;;21.80;59.09;94015.94;6110973;23;20024;-81
2021/06/29 03:33:00;;;;;;;6.82;6.22;;;;;;;22.15;58.11;94028.59;6110004;23;20064;-81
2021/06/29 03:35:25;;;;;;;11.55;6.70;;;;;;;22.29;57.57;94018.88;6109873;23;20025;-81
2021/06/29 03:37:50;;;;;;;7.90;6.70;;;;;;;22.69;56.57;94029.22;6117135;23;20085;-81
2021/06/29 03:40:16;;;;;;;8.80;6.80;;;;;;;22.95;55.00;94019.66;6122435;23;20037;-81
2021/06/29 03:42:42;;;;;;;7.90;6.15;;;;;;;23.52;53.74;94022.09;6114707;23;20006;-81
2021/06/29 03:45:08;;;;;;;7.18;6.25;;;;;;;24.05;52.61;94022.00;6111777;23;20014;-81
2021/06/29 03:47:35;;;;;;;8.38;6.55;;;;;;;24.51;52.55;94023.34;6111648;23;20487;-81
2021/06/29 03:50:01;;;;;;;7.25;6.05;;;;;;;25.05;50.28;94021.94;6115880;23;20017;-79
2021/06/29 03:52:27;;;;;;;8.25;6.38;;;;;;;25.51;49.57;94029.63;6112518;23;20097;-79
2021/06/29 03:54:53;;;;;;;8.65;6.65;;;;;;;25.82;48.16;94029.06;6113675;23;20069;-79
2021/06/29 03:57:18;;;;;;;11.32;6.78;;;;;;;26.32;46.85;94040.13;6110761;23;20018;-79
2021/06/29 03:59:43;;;;;;;9.00;7.03;;;;;;;26.57;46.65;94028.22;6111078;23;20072;-81
2021/06/29 04:02:09;;;;;;;10.57;6.78;;;;;;;26.88;45.89;94037.59;6112884;23;20345;-81
2021/06/29 04:04:34;;;;;;;11.13;6.60;;;;;;;27.19;45.42;94043.44;6109681;23;20662;-81
2021/06/29 04:07:02;;;;;;;9.60;7.15;;;;;;;27.59;43.51;94032.19;6115726;23;19994;-82
2021/06/29 04:09:28;;;;;;;10.68;7.43;;;;;;;28.13;42.27;94033.66;6099975;23;20471;-79
2021/06/29 04:11:53;;;;;;;9.07;5.88;;;;;;;28.37;41.73;94034.72;6139387;23;20017;-79
2021/06/29 04:14:18;;;;;;;11.07;6.57;;;;;;;28.76;41.03;94040.75;6114924;23;20013;-78
2021/06/29 04:16:44;;;;;;;12.15;6.95;;;;;;;28.91;40.19;94035.22;6148833;23;20096;-79
2021/06/29 04:19:09;;;;;;;9.52;7.88;;;;;;;28.83;40.26;94035.25;6155234;23;20046;-79
2021/06/29 04:21:35;;;;;;;11.98;7.50;;;;;;;29.09;40.26;94024.97;6140475;23;20025;-79
2021/06/29 04:24:05;;;;;;;9.82;6.47;;;;;;;29.47;39.96;94028.59;6142257;23;20092;-79
2021/06/29 04:26:31;;;;;;;17.95;7.88;;;;;;;29.24;39.60;94031.84;6115064;23;20117;-79
2021/06/29 04:28:57;;;;;;;9.90;7.70;;;;;;;29.08;39.58;94015.25;6114126;23;20017;-79
2021/06/29 04:31:22;;;;;;;8.43;6.63;;;;;;;29.36;39.59;94028.69;6148584;23;20510;-81
2021/06/29 04:33:47;;;;;;;10.27;7.72;;;;;;;29.59;39.61;94019.91;6153354;23;20005;-81
2021/06/29 04:36:14;;;;;;;10.93;7.85;;;;;;;29.62;38.76;94036.22;6140149;23;20353;-82
2021/06/29 04:38:40;;;;;;;10.73;7.57;;;;;;;29.69;39.05;94030.72;6138436;23;20059;-81
2021/06/29 04:41:05;;;;;;;11.38;6.90;;;;;;;30.23;38.56;94025.50;6140786;23;20021;-81
2021/06/29 04:43:31;;;;;;;8.82;7.97;;;;;;;30.68;37.32;94023.41;6145277;23;20249;-79
2021/06/29 04:45:57;;;;;;;9.30;6.75;;;;;;;30.94;36.77;94025.34;6153337;23;20016;-79
2021/06/29 04:48:22;;;;;;;9.27;7.18;;;;;;;31.49;35.82;94026.84;6141140;23;20025;-79
2021/06/29 04:50:48;;;;;;;17.40;7.40;;;;;;;31.97;35.65;94020.94;6142642;23;20025;-79
2021/06/29 04:53:13;;;;;;;10.45;7.63;;;;;;;32.04;35.25;94020.84;6139529;23;20092;-79
2021/06/29 04:55:39;;;;;;;10.93;7.88;;;;;;;32.37;34.53;94026.47;6140133;23;20005;-79
2021/06/29 04:58:04;;;;;;;8.13;7.38;;;;;;;32.59;34.15;94025.63;6152209;23;20468;-80
2021/06/29 05:00:30;;;;;;;13.70;7.57;;;;;;;32.71;34.02;94031.66;6142146;23;20325;-79
2021/06/29 05:02:55;;;;;;;10.13;7.80;;;;;;;32.49;34.57;94034.03;6139794;23;20475;-79
2021/06/29 05:05:21;;;;;;;12.02;7.35;;;;;;;32.54;34.10;94026.13;6110505;23;20022;-78
2021/06/29 05:07:48;;;;;;;13.25;7.40;;;;;;;32.39;34.70;94026.81;6148152;23;20052;-79
2021/06/29 05:10:13;;;;;;;15.27;7.45;;;;;;;32.90;33.78;94028.88;6125762;23;20280;-79
2021/06/29 05:12:39;;;;;;;17.65;7.75;;;;;;;33.30;33.54;94031.50;6112343;23;20010;-79
2021/06/29 05:15:07;;;;;;;8.40;7.25;;;;;;;32.89;33.49;94038.25;6113617;23;20113;-79
2021/06/29 05:17:34;;;;;;;10.93;7.68;;;;;;;33.39;33.28;94029.72;6110179;23;20496;-79
2021/06/29 05:19:59;;;;;;;16.50;7.82;;;;;;;32.67;33.60;94029.00;6084922;23;20016;-80
2021/06/29 05:22:24;;;;;;;11.45;8.52;;;;;;;32.45;34.30;94034.09;6108285;23;20017;-79
2021/06/29 05:24:51;;;;;;;16.70;8.27;;;;;;;33.06;33.39;94034.38;6087673;23;20010;-79
2021/06/29 05:27:16;;;;;;;9.65;8.43;;;;;;;32.93;33.25;94038.97;6111858;23;20363;-80
2021/06/29 05:29:42;;;;;;;11.63;7.70;;;;;;;33.62;32.68;94034.25;6114515;23;20100;-78
2021/06/29 05:32:08;;;;;;;10.75;8.48;;;;;;;33.76;32.18;94033.91;6084286;23;20068;-79
2021/06/29 05:34:33;;;;;;;11.80;9.13;;;;;;;33.50;32.83;94029.44;6119892;23;20041;-79
2021/06/29 05:36:59;;;;;;;13.55;8.02;;;;;;;33.46;32.75;94031.50;6113655;23;20028;-79
2021/06/29 05:39:24;;;;;;;10.13;7.90;;;;;;;34.15;31.89;94029.38;6112112;23;20465;-79
2021/06/29 05:41:52;;;;;;;12.23;9.25;;;;;;;34.60;31.76;94035.53;6107861;23;20280;-80
2021/06/29 05:44:17;;;;;;;12.48;8.75;;;;;;;34.07;32.22;94033.50;6114348;23;20022;-79
2021/06/29 05:46:43;;;;;;;10.13;8.77;;;;;;;34.49;31.49;94037.84;6115980;23;20390;-80
2021/06/29 05:49:13;;;;;;;15.05;8.63;;;;;;;34.83;31.16;94042.00;6110819;23;20322;-80
2021/06/29 05:51:44;;;;;;;12.35;9.70;;;;;;;34.43;31.47;94033.31;6081497;23;20018;-80
2021/06/29 05:54:10;;;;;;;15.00;8.55;;;;;;;34.73;30.76;94033.66;6109503;23;20386;-79
2021/06/29 05:56:35;;;;;;;11.18;8.38;;;;;;;34.62;31.18;94040.59;6114664;23;20079;-80
2021/06/29 05:59:01;;;;;;;12.10;8.98;;;;;;;34.66;31.45;94046.75;6109579;23;20296;-79
2021/06/29 06:01:26;;;;;;;10.48;8.32;;;;;;;34.94;30.94;94042.47;6117576;23;20013;-79
2021/06/29 06:03:51;;;;;;;10.75;8.68;;;;;;;35.43;30.46;94027.16;6113955;23;20789;-80
2021/06/29 06:06:17;;;;;;;12.00;8.25;;;;;;;35.74;30.29;94037.59;6111141;23;20025;-79
2021/06/29 06:08:42;;;;;;;12.93;8.90;;;;;;;35.45;31.14;94033.00;6089456;23;20026;-79
2021/06/29 06:11:08;;;;;;;12.13;9.00;;;;;;;35.35;31.07;94034.13;6114850;23;20091;-81
2021/06/29 06:13:33;;;;;;;11.68;9.63;;;;;;;35.07;31.68;94030.25;6113851;23;20021;-80
2021/06/29 06:16:00;;;;;;;11.73;9.48;;;;;;;35.04;31.72;94035.88;6116253;23;20013;-79
2021/06/29 06:18:25;;;;;;;11.43;8.55;;;;;;;34.92;31.44;94040.13;6114475;23;20025;-79
2021/06/29 06:20:51;;;;;;;11.82;10.13;;;;;;;35.17;31.04;94042.16;6140443;23;20014;-80
2021/06/29 06:23:17;;;;;;;17.77;10.77;;;;;;;35.27;31.24;94040.28;6145260;23;20616;-80
2021/06/29 06:25:42;;;;;;;14.30;10.15;;;;;;;35.56;30.92;94038.94;6141072;23;20041;-79
2021/06/29 06:28:07;;;;;;;13.20;10.82;;;;;;;35.42;30.58;94039.41;6116509;23;20416;-80
2021/06/29 06:30:33;;;;;;;13.90;10.15;;;;;;;35.78;30.55;94035.50;6140144;23;20345;-79
2021/06/29 06:32:58;;;;;;;14.77;11.38;;;;;;;36.43;29.52;94033.63;6141161;23;20263;-80
2021/06/29 06:35:24;;;;;;;14.70;9.68;;;;;;;36.48;30.06;94029.53;6113483;23;20020;-80
2021/06/29 06:37:49;;;;;;;13.82;9.57;;;;;;;36.55;29.61;94034.78;6145250;23;20029;-80
2021/06/29 06:40:15;;;;;;;13.88;10.75;;;;;;;36.45;29.96;94031.19;6141647;23;20035;-80
2021/06/29 06:42:41;;;;;;;12.55;10.50;;;;;;;37.27;29.12;94034.44;6142451;23;20017;-79
2021/06/29 06:45:08;;;;;;;12.45;9.60;;;;;;;37.36;28.47;94035.66;6140613;23;20265;-80
2021/06/29 06:47:34;;;;;;;11.80;9.95;;;;;;;37.26;28.59;94035.63;6113228;23;20472;-80
2021/06/29 06:50:00;;;;;;;11.90;9.70;;;;;;;37.31;28.59;94021.25;6140556;23;20362;-80
2021/06/29 06:52:26;;;;;;;14.43;10.10;;;;;;;37.86;27.58;94037.19;6149228;23;20069;-80
2021/06/29 06:54:51;;;;;;;12.05;10.70;;;;;;;37.86;27.20;94034.44;6153125;23;20005;-80
2021/06/29 06:57:17;;;;;;;10.73;9.30;;;;;;;38.13;26.72;94031.72;6136037;23;20075;-80
2021/06/29 06:59:42;;;;;;;11.18;8.77;;;;;;;39.13;26.14;94028.06;6115412;23;20108;-80
2021/06/29 07:02:07;;;;;;;13.55;9.23;;;;;;;39.51;25.00;94033.75;6139149;23;20052;-79
2021/06/29 07:04:33;;;;;;;14.18;10.15;;;;;;;39.63;25.17;94046.63;6148029;23;20345;-80
2021/06/29 07:06:58;;;;;;;12.05;9.15;;;;;;;39.58;24.89;94038.19;6152891;23;20472;-81
2021/06/29 07:09:25;;;;;;;13.77;9.27;;;;;;;39.47;24.70;94035.16;6128686;23;20108;-81
2021/06/29 07:11:50;;;;;;;15.30;9.60;;;;;;;39.25;25.47;94035.38;6111259;23;20041;-80
2021/06/29 07:14:16;;;;;;;12.68;9.13;;;;;;;39.63;25.76;94035.56;6117090;23;20077;-81
2021/06/29 07:16:42;;;;;;;14.20;11.60;;;;;;;40.33;24.72;94033.25;6117183;23;20026;-80
2021/06/29 07:19:08;;;;;;;15.45;10.32;;;;;;;41.04;24.25;94035.06;6121177;23;20033;-81
2021/06/29 07:21:34;;;;;;;12.98;9.57;;;;;;;42.02;23.39;94024.41;6111153;23;20346;-79
2021/06/29 07:24:00;;;;;;;18.92;10.27;;;;;;;42.43;22.46;94034.25;6110658;23;20088;-82
2021/06/29 07:26:26;;;;;;;17.88;10.15;;;;;;;41.55;23.00;94039.38;6116882;23;20433;-80
2021/06/29 07:28:51;;;;;;;14.73;10.10;;;;;;;40.91;24.05;94042.88;6118422;23;20048;-80
2021/06/29 07:31:17;;;;;;;12.70;10.00;;;;;;;40.44;24.14;94033.47;6113315;23;20518;-80
2021/06/29 07:33:44;;;;;;;13.77;9.45;;;;;;;40.16;24.50;94040.44;6087137;23;19998;-80
2021/06/29 07:36:12;;;;;;;10.93;9.75;;;;;;;40.73;24.02;94034.75;6112925;23;20022;-80
2021/06/29 07:38:38;;;;;;;12.48;9.75;;;;;;;41.77;23.41;94025.84;6110350;23;20014;-81
2021/06/29 07:41:03;;;;;;;11.90;9.63;;;;;;;41.54;22.71;94038.66;6119230;23;20017;-80
2021/06/29 07:43:28;;;;;;;14.57;10.07;;;;;;;41.46;23.24;94032.72;6112345;23;20445;-80
2021/06/29 07:45:55;;;;;;;13.55;10.60;;;;;;;41.69;23.44;94027.50;6122600;23;20041;-80
2021/06/29 07:48:20;;;;;;;12.48;9.45;;;;;;;42.38;23.35;94025.84;6113182;23;20326;-81
2021/06/29 07:50:45;;;;;;;12.17;10.03;;;;;;;42.61;22.14;94020.06;6115310;23;20100;-81
2021/06/29 07:53:11;;;;;;;10.95;9.07;;;;;;;42.52;22.31;94030.56;6112844;23;20232;-80
2021/06/29 07:55:36;;;;;;;13.30;9.25;;;;;;;43.39;21.58;94017.22;6083023;23;20350;-80
2021/06/29 07:58:02;;;;;;;14.68;9.85;;;;;;;44.20;20.90;94022.25;6122876;23;20013;-80
2021/06/29 08:00:27;;;;;;;9.40;8.40;;;;;;;44.31;20.46;94009.16;6111836;23;20020;-80
2021/06/29 08:02:53;;;;;;;13.60;8.65;;;;;;;44.96;19.00;94020.19;6086324;23;20357;-81
2021/06/29 08:05:18;;;;;;;10.57;8.32;;;;;;;45.80;19.38;94018.13;6109041;23;20089;-81
2021/06/29 08:07:44;;;;;;;14.23;7.45;;;;;;;46.40;18.62;94015.63;6118682;23;20017;-81
2021/06/29 08:10:10;;;;;;;9.10;8.20;;;;;;;46.01;18.65;94021.38;6110605;23;20048;-81
2021/06/29 08:12:36;;;;;;;14.60;8.98;;;;;;;45.63;18.97;94020.94;6141781;23;20018;-81
2021/06/29 08:15:02;;;;;;;19.58;9.40;;;;;;;45.02;19.96;94022.97;6140635;23;20048;-81
2021/06/29 08:17:28;;;;;;;9.88;8.90;;;;;;;45.41;19.69;94023.75;6140768;23;20017;-80
2021/06/29 08:19:55;;;;;;;12.07;8.55;;;;;;;45.39;19.59;94023.50;6114902;23;20029;-80
2021/06/29 08:22:21;;;;;;;11.60;7.97;;;;;;;44.47;20.02;94018.81;6141125;23;20505;-82
2021/06/29 08:24:47;;;;;;;11.73;8.05;;;;;;;43.95;20.00;94019.09;6153410;23;20574;-81
2021/06/29 08:27:15;;;;;;;12.48;7.97;;;;;;;44.16;19.24;94021.72;6111506;23;20251;-80
2021/06/29 08:29:42;;;;;;;9.82;7.68;;;;;;;44.23;19.30;94010.84;6145003;23;20017;-80
2021/06/29 08:32:08;;;;;;;8.55;6.53;;;;;;;43.56;19.79;94012.53;6141173;23;20023;-80
2021/06/29 08:34:33;;;;;;;9.38;6.53;;;;;;;43.23;19.56;94010.28;6147581;23;20017;-80
2021/06/29 08:36:59;;;;;;;8.05;7.10;;;;;;;43.53;19.81;94013.53;6115844;23;20013;-81
2021/06/29 08:39:24;;;;;;;15.63;8.95;;;;;;;43.35;19.89;94011.13;6114406;23;20017;-80
2021/06/29 08:41:50;;;;;;;13.65;8.50;;;;;;;43.61;21.56;94006.25;6140743;23;20014;-80
2021/06/29 08:44:18;;;;;;;11.43;7.38;;;;;;;44.16;19.83;94005.00;6146060;23;20455;-81
2021/06/29 08:46:43;;;;;;;13.45;7.95;;;;;;;43.04;20.50;93998.75;6148519;23;20020;-80
2021/06/29 08:49:09;;;;;;;10.05;8.20;;;;;;;42.81;20.60;94005.38;6150935;23;20446;-81
2021/06/29 08:51:34;;;;;;;13.50;9.43;;;;;;;42.81;21.87;93988.69;6140806;23;20017;-80
2021/06/29 08:54:03;;;;;;;10.45;8.48;;;;;;;43.38;21.78;93985.09;6138941;23;20357;-81
2021/06/29 08:56:30;;;;;;;9.07;8.05;;;;;;;43.38;20.37;93982.31;6113170;23;20018;-80
2021/06/29 08:58:56;;;;;;;15.55;8.07;;;;;;;42.53;21.58;93982.84;6139834;23;20020;-81
2021/06/29 09:01:25;;;;;;;15.43;8.25;;;;;;;43.06;21.54;93985.09;6140674;23;20001;-80
2021/06/29 09:03:52;;;;;;;10.27;8.88;;;;;;;42.52;21.32;93983.34;6152383;23;20002;-80
2021/06/29 09:06:31;;;;;;;11.23;8.35;;;;;;;42.25;22.12;93976.97;6141883;23;20120;-80
2021/06/29 09:08:56;;;;;;;14.45;10.25;;;;;;;42.50;22.06;93980.28;6133901;23;20026;-81
2021/06/29 09:11:21;;;;;;;12.68;11.18;;;;;;;41.62;22.59;93975.19;6115741;23;20036;-81
2021/06/29 09:14:09;;;;;;;12.27;8.77;;;;;;;41.13;23.14;93970.44;6118529;23;20049;-80
2021/06/29 09:16:35;;;;;;;12.77;9.57;;;;;;;40.90;22.59;93974.84;6119940;23;20022;-79
2021/06/29 09:19:00;;;;;;;9.40;6.78;;;;;;;40.07;22.66;93974.84;6085357;23;20392;-79
2021/06/29 09:21:26;;;;;;;10.05;8.10;;;;;;;39.84;23.68;93978.41;6111918;23;20026;-80
2021/06/29 09:23:52;;;;;;;10.90;9.77;;;;;;;39.04;25.13;93970.06;6111342;23;20049;-80
2021/06/29 09:26:23;;;;;;;21.27;11.20;;;;;;;37.86;27.60;93960.72;6107916;23;20100;-80
2021/06/29 09:28:55;;;;;;;23.00;12.32;;;;;;;37.48;28.50;93960.38;6111654;23;20377;-79
2021/06/29 09:31:23;;;;;;;15.57;12.52;;;;;;;37.24;27.93;93962.91;6109121;23;20045;-81
2021/06/29 09:33:57;;;;;;;12.93;11.32;;;;;;;36.42;28.90;93957.00;6110924;23;20157;-80
2021/06/29 09:36:29;;;;;;;17.10;11.52;;;;;;;36.07;30.01;93950.03;6084645;23;20357;-81
2021/06/29 09:38:59;;;;;;;16.05;11.98;;;;;;;35.94;30.43;93952.81;6112800;23;20087;-80
2021/06/29 09:41:30;;;;;;;15.00;11.18;;;;;;;35.79;30.54;93954.53;6115268;23;20564;-80
2021/06/29 09:44:05;;;;;;;14.18;11.13;;;;;;;35.49;30.52;93951.19;6081037;23;20017;-80
2021/06/29 09:46:31;;;;;;;14.88;10.50;;;;;;;35.14;31.35;93960.56;6084348;23;20013;-79
2021/06/29 09:49:00;;;;;;;12.45;10.40;;;;;;;35.03;30.09;93957.44;6111895;23;20014;-80
2021/06/29 09:51:34;;;;;;;13.13;10.50;;;;;;;34.78;30.82;93952.72;6110984;23;20025;-80
2021/06/29 09:54:02;;;;;;;13.93;10.97;;;;;;;34.32;31.08;93948.56;6081135;23;20022;-80
2021/06/29 09:56:35;;;;;;;20.88;10.65;;;;;;;34.52;31.33;93946.41;6115612;23;20044;-80
2021/06/29 09:59:03;;;;;;;11.55;9.77;;;;;;;34.55;32.79;93945.50;6111819;23;20461;-80
2021/06/29 10:01:29;;;;;;;16.52;10.95;;;;;;;34.69;30.99;93938.88;6084266;23;20033;-80
2021/06/29 10:03:56;;;;;;;13.38;10.93;;;;;;;34.84;31.27;93942.72;6113550;23;20036;-80
2021/06/29 10:06:24;;;;;;;12.35;10.80;;;;;;;34.56;31.37;93941.56;6084462;23;20018;-80
2021/06/29 10:08:55;;;;;;;11.10;9.77;;;;;;;34.42;33.55;93931.03;6106935;23;20291;-81
2021/06/29 10:11:24;;;;;;;14.88;13.30;;;;;;;34.08;34.57;93939.06;6116954;23;20018;-81
2021/06/29 10:13:51;;;;;;;17.75;10.48;;;;;;;34.02;33.18;93936.06;6108551;23;20014;-80
2021/06/29 10:16:21;;;;;;;13.07;11.38;;;;;;;34.13;32.59;93935.78;6111777;23;20088;-80
2021/06/29 10:21:20;;;;;;;11.30;10.13;;;;;;;34.45;32.93;93924.69;6112689;23;20121;-80
2021/06/29 10:23:47;;;;;;;11.82;10.30;;;;;;;34.35;33.28;93915.56;6113452;23;20026;-79
2021/06/29 10:26:13;;;;;;;11.85;9.95;;;;;;;34.59;32.51;93924.25;6081832;23;20025;-79
2021/06/29 10:28:39;;;;;;;14.60;10.48;;;;;;;34.40;33.00;93919.72;6117207;23;20047;-79
2021/06/29 10:31:05;;;;;;;10.98;9.60;;;;;;;34.34;32.04;93913.25;6110860;23;20005;-81
2021/06/29 10:33:32;;;;;;;18.20;11.23;;;;;;;34.38;32.52;93908.41;6111331;23;20349;-80
2021/06/29 10:36:00;;;;;;;12.15;10.65;;;;;;;34.44;33.71;93917.66;6082975;23;20163;-80
2021/06/29 10:38:26;;;;;;;13.68;12.20;;;;;;;34.42;33.65;93902.81;6109003;23;20623;-80
2021/06/29 10:40:54;;;;;;;17.55;13.60;;;;;;;34.39;35.05;93904.47;6108650;23;20255;-80
2021/06/29 10:43:20;;;;;;;14.70;11.93;;;;;;;34.46;35.21;93914.44;6111689;23;20110;-79
2021/06/29 10:45:48;;;;;;;13.38;12.15;;;;;;;34.30;35.46;93905.13;6088076;23;20080;-80
2021/06/29 10:48:22;;;;;;;15.25;12.77;;;;;;;34.39;33.35;93898.97;6084395;23;20017;-80
2021/06/29 10:50:49;;;;;;;14.18;11.73;;;;;;;34.45;34.00;93902.72;6085903;23;20018;-80
2021/06/29 10:53:38;;;;;;;13.50;11.85;;;;;;;34.44;34.51;93898.44;6081731;23;20009;-80
2021/06/29 10:56:07;;;;;;;13.85;11.40;;;;;;;34.34;36.07;93888.56;6086117;23;20493;-80
2021/06/29 10:58:35;;;;;;;16.02;12.43;;;;;;;34.31;35.10;93892.16;6110642;23;20029;-80
2021/06/29 11:01:19;;;;;;;14.60;12.18;;;;;;;34.30;35.07;93888.66;6113635;23;20445;-80
2021/06/29 11:03:45;;;;;;;13.65;12.25;;;;;;;34.41;35.54;93885.56;6112110;23;20018;-80
2021/06/29 11:06:11;;;;;;;14.20;11.80;;;;;;;34.36;35.40;93875.16;6086405;23;20120;-80
2021/06/29 11:08:46;;;;;;;15.90;12.90;;;;;;;34.57;36.55;93874.50;6114426;23;20457;-80
2021/06/29 11:11:13;;;;;;;14.85;12.93;;;;;;;34.52;34.54;93866.81;6118614;23;20018;-79
2021/06/29 11:13:41;;;;;;;13.88;12.25;;;;;;;34.25;35.16;93871.97;6084947;23;20467;-80
2021/06/29 11:16:07;;;;;;;14.82;13.23;;;;;;;34.23;35.84;93874.38;6124974;23;20625;-80
2021/06/29 11:18:41;;;;;;;15.80;13.43;;;;;;;34.14;34.77;93868.75;6110569;23;20362;-80
2021/06/29 11:21:30;;;;;;;;;;;;;;;34.10;35.35;93859.88;6086278;23;20495;-80
2021/06/29 11:23:55;;;;;;;16.63;13.63;;;;;;;34.08;36.67;93857.56;6110009;23;19913;-80
2021/06/29 11:26:22;;;;;;;18.58;14.23;;;;;;;34.28;35.80;93854.63;6112639;23;20073;-80
2021/06/29 11:28:52;;;;;;;21.45;13.90;;;;;;;34.21;34.93;93849.38;6111460;23;20337;-80
2021/06/29 11:31:20;;;;;;;15.50;13.27;;;;;;;34.13;34.49;93861.72;6102348;23;20108;-79